Time;durP1;ratioP1;P1;durP2;ratioP2;P2;SDS_P1;SDS_P2;PMS_P1;PMS_P2;Temp;Humidity;BMP_temperature;BMP_pressure;BME280_temperature;BME280_humidity;BME280_pressure;Samples;Min_cycle;Max_cycle;Signal;HPM_P1;HPM_P2
2022/02/02 00:01:20;;;;;;;2.42;1.45;;;;;;;2.45;90.08;95768.44;5048806;28;20056;-78
2022/02/02 00:03:51;;;;;;;2.22;1.40;;;;;;;2.47;90.08;95733.22;5049219;28;20474;-77
2022/02/02 00:06:22;;;;;;;2.72;1.50;;;;;;;2.48;89.90;95734.84;5048403;28;20479;-77
2022/02/02 00:08:57;;;;;;;2.78;1.10;;;;;;;2.41;90.12;95745.09;5048953;28;20611;-77
2022/02/02 00:14:20;;;;;;;2.13;1.27;;;;;;;2.48;89.82;95780.50;5048107;28;20529;-78
2022/02/02 00:16:51;;;;;;;4.68;1.67;;;;;;;2.54;89.51;95784.75;5048675;28;20052;-77
2022/02/02 00:19:28;;;;;;;2.30;1.40;;;;;;;2.51;89.39;95766.53;5048697;28;20044;-77
2022/02/02 00:21:59;;;;;;;2.72;1.23;;;;;;;2.43;89.44;95764.44;5049293;28;20400;-77
2022/02/02 00:24:34;;;;;;;2.13;1.40;;;;;;;2.39;89.47;95758.00;5048450;28;20431;-77
2022/02/02 00:27:05;;;;;;;2.10;1.50;;;;;;;2.31;89.90;95778.22;5048586;28;20503;-75
2022/02/02 00:29:36;;;;;;;2.20;1.45;;;;;;;2.27;89.98;95769.13;5048804;28;20044;-79
2022/02/02 00:32:11;;;;;;;1.92;1.20;;;;;;;2.26;89.88;95786.31;5048405;28;20045;-77
2022/02/02 00:34:37;;;;;;;2.25;1.42;;;;;;;2.32;90.09;95779.81;5048633;28;20123;-78
2022/02/02 00:37:04;;;;;;;1.95;1.38;;;;;;;2.30;90.01;95788.16;5047649;28;20051;-77
2022/02/02 00:39:32;;;;;;;1.83;1.40;;;;;;;2.35;89.98;95784.66;5048218;28;20127;-77
2022/02/02 00:41:59;;;;;;;1.30;1.00;;;;;;;2.35;89.96;95787.34;5048405;28;20057;-78
2022/02/02 00:44:27;;;;;;;1.67;1.50;;;;;;;2.40;90.04;95783.78;5047790;28;20049;-78
2022/02/02 00:46:54;;;;;;;2.35;1.30;;;;;;;2.43;89.74;95753.69;5047892;28;20068;-77
2022/02/02 00:49:22;;;;;;;3.15;1.50;;;;;;;2.44;89.77;95755.28;5047841;28;20241;-77
2022/02/02 00:51:50;;;;;;;2.38;1.30;;;;;;;2.46;89.92;95745.06;5048337;28;20057;-77
2022/02/02 00:54:20;;;;;;;2.47;1.55;;;;;;;2.47;89.82;95730.53;5047717;28;20401;-78
2022/02/02 00:56:48;;;;;;;3.53;1.42;;;;;;;2.46;90.05;95726.25;5040026;28;20057;-78
2022/02/02 00:59:15;;;;;;;4.18;1.58;;;;;;;2.49;90.06;95731.06;5047868;28;20049;-77
2022/02/02 01:01:42;;;;;;;4.38;1.85;;;;;;;2.48;90.27;95734.84;5048392;28;20051;-77
2022/02/02 01:04:09;;;;;;;2.08;1.52;;;;;;;2.49;90.06;95737.22;5047349;28;20527;-77
2022/02/02 01:06:40;;;;;;;2.03;1.58;;;;;;;2.51;90.05;95731.59;5047595;28;20036;-78
2022/02/02 01:09:14;;;;;;;3.25;1.50;;;;;;;2.56;90.05;95742.31;5047139;28;20893;-77
2022/02/02 01:12:19;;;;;;;3.63;1.77;;;;;;;2.64;90.04;95738.19;5047443;28;20115;-77
2022/02/02 01:20:35;;;;;;;3.60;1.80;;;;;;;2.82;89.56;95762.50;5027346;28;21054;-78
2022/02/02 01:28:43;;;;;;;2.70;1.60;;;;;;;2.85;88.85;95736.91;5020036;28;20407;-77
2022/02/02 01:31:14;;;;;;;2.75;1.70;;;;;;;2.79;88.34;95744.22;5027340;28;20051;-77
2022/02/02 01:33:41;;;;;;;4.65;1.60;;;;;;;2.74;88.52;95741.59;5027298;28;20420;-77
2022/02/02 01:36:08;;;;;;;3.17;1.60;;;;;;;2.73;88.62;95747.25;5027032;28;20068;-78
2022/02/02 01:38:36;;;;;;;2.92;1.83;;;;;;;2.69;88.61;95762.34;5027654;28;20049;-78
2022/02/02 01:41:07;;;;;;;5.43;1.88;;;;;;;2.75;88.83;95750.44;5027161;28;20049;-77
2022/02/02 01:43:37;;;;;;;3.55;1.70;;;;;;;2.73;88.72;95741.88;5042243;28;20045;-78
2022/02/02 01:46:08;;;;;;;4.70;2.03;;;;;;;2.75;88.50;95737.00;5046376;28;20055;-77
2022/02/02 01:48:43;;;;;;;3.00;2.00;;;;;;;2.80;88.71;95750.41;5047183;28;20048;-78
2022/02/02 01:51:29;;;;;;;3.35;2.00;;;;;;;2.80;88.73;95732.38;5046679;28;20123;-78
2022/02/02 01:54:01;;;;;;;3.60;2.00;;;;;;;2.80;88.78;95724.31;5047060;28;20064;-77
2022/02/02 01:56:28;;;;;;;3.63;1.70;;;;;;;2.84;88.51;95721.88;5046348;28;20044;-78
2022/02/02 01:59:04;;;;;;;4.78;1.63;;;;;;;2.86;88.59;95730.44;5047445;28;20060;-77
2022/02/02 02:01:32;;;;;;;2.42;1.60;;;;;;;2.88;88.47;95742.53;5047265;28;20045;-78
2022/02/02 02:04:01;;;;;;;2.88;1.70;;;;;;;2.92;88.29;95747.31;5047136;28;20138;-77
2022/02/02 02:06:27;;;;;;;2.85;1.55;;;;;;;2.93;88.37;95740.88;5046761;28;20052;-78
2022/02/02 02:08:54;;;;;;;2.45;1.40;;;;;;;2.88;88.58;95750.59;5046779;28;20056;-78
2022/02/02 02:11:22;;;;;;;3.60;1.30;;;;;;;2.92;88.30;95755.41;5046730;28;20686;-78
2022/02/02 02:14:23;;;;;;;2.80;1.35;;;;;;;2.93;88.13;95746.28;5046824;28;20664;-78
2022/02/02 02:16:46;;;;;;;1.98;0.90;;;;;;;2.93;87.62;95747.06;5046436;28;20128;-77
2022/02/02 02:19:14;;;;;;;1.73;1.30;;;;;;;2.91;88.01;95724.22;5046695;28;20629;-78
2022/02/02 02:21:43;;;;;;;1.40;1.00;;;;;;;2.93;87.83;95743.56;5047061;28;20044;-77
2022/02/02 02:24:11;;;;;;;1.55;1.05;;;;;;;2.94;87.72;95742.50;5049562;28;20500;-77
2022/02/02 02:26:40;;;;;;;1.30;1.00;;;;;;;2.93;87.63;95747.06;5050713;28;20627;-77
2022/02/02 02:29:31;;;;;;;4.00;1.30;;;;;;;2.92;87.97;95733.88;5050350;28;20057;-78
2022/02/02 02:32:13;;;;;;;1.98;1.45;;;;;;;2.88;87.88;95729.09;5051328;28;20053;-78
2022/02/02 02:34:58;;;;;;;2.10;1.52;;;;;;;2.91;87.87;95743.84;5050615;28;20040;-77
2022/02/02 02:37:39;;;;;;;2.55;1.65;;;;;;;2.91;87.90;95732.28;5050025;28;20137;-77
2022/02/02 02:40:21;;;;;;;2.53;1.52;;;;;;;2.90;88.01;95736.06;5050437;28;20056;-78
2022/02/02 02:56:30;;;;;;;2.42;1.63;;;;;;;2.96;88.77;95710.72;5050035;28;20126;-77
2022/02/02 02:59:04;;;;;;;3.35;1.30;;;;;;;2.97;88.38;95723.06;5050696;28;20415;-78
2022/02/02 03:02:12;;;;;;;2.80;1.70;;;;;;;2.96;88.67;95734.94;5050420;28;20049;-78
2022/02/02 03:32:17;;;;;;;4.57;1.80;;;;;;;3.50;86.64;95749.94;5049761;28;20052;-78
2022/02/02 03:35:03;;;;;;;3.55;1.98;;;;;;;3.53;86.66;95757.44;5049530;28;20053;-79
2022/02/02 03:51:33;;;;;;;5.30;2.35;;;;;;;3.65;86.76;95768.59;5028299;28;20489;-79
2022/02/02 03:54:21;;;;;;;4.63;2.28;;;;;;;3.65;86.70;95788.28;5034873;28;20494;-78
2022/02/02 03:59:41;;;;;;;5.40;2.47;;;;;;;3.70;86.61;95792.75;5069483;28;20055;-78
2022/02/02 04:02:18;;;;;;;8.07;2.05;;;;;;;3.71;86.54;95804.34;5068880;28;20056;-78
2022/02/02 04:04:55;;;;;;;5.85;2.47;;;;;;;3.74;86.29;95804.56;5068842;28;20072;-77
2022/02/02 04:07:24;;;;;;;5.65;2.13;;;;;;;3.75;86.44;95811.56;5068315;28;20075;-76
2022/02/02 04:09:51;;;;;;;5.82;2.40;;;;;;;3.77;86.44;95797.81;5069123;28;20127;-78
2022/02/02 04:12:33;;;;;;;3.58;2.30;;;;;;;3.77;86.40;95797.81;5048694;28;20051;-78
2022/02/02 04:17:57;;;;;;;4.97;2.08;;;;;;;3.80;86.11;95787.25;5048405;28;20055;-79
2022/02/02 04:56:25;;;;;;;3.72;1.80;;;;;;;3.74;86.50;95796.50;5047572;28;20098;-77
2022/02/02 04:59:01;;;;;;;5.97;1.60;;;;;;;3.74;86.02;95804.56;5048029;28;20106;-77
2022/02/02 05:04:37;;;;;;;4.15;1.65;;;;;;;3.81;85.89;95812.28;5021057;28;20559;-78
2022/02/02 05:07:10;;;;;;;13.90;2.95;;;;;;;3.81;85.78;95801.53;5047411;28;20835;-77
2022/02/02 05:09:47;;;;;;;12.52;2.25;;;;;;;3.79;85.97;95801.81;5047806;28;20045;-78
2022/02/02 05:17:57;;;;;;;10.50;2.33;;;;;;;3.78;86.15;95804.81;5006399;28;20133;-79
2022/02/02 05:20:51;;;;;;;10.05;2.15;;;;;;;3.80;86.07;95819.56;5047550;28;20053;-78
2022/02/02 05:45:35;;;;;;;10.23;2.35;;;;;;;3.71;87.49;95853.63;5015218;28;20052;-77
2022/02/02 05:53:31;;;;;;;11.57;1.98;;;;;;;3.78;86.66;95832.53;5045187;28;20103;-78
2022/02/02 05:56:02;;;;;;;13.32;2.47;;;;;;;3.79;86.36;95830.66;5045293;28;20056;-79
2022/02/02 05:58:30;;;;;;;13.93;2.22;;;;;;;3.86;85.88;95828.41;5045262;28;20048;-80
2022/02/02 06:00:58;;;;;;;11.88;2.30;;;;;;;3.89;84.71;95844.78;5046223;28;20779;-79
2022/02/02 06:03:31;;;;;;;13.68;2.50;;;;;;;3.90;84.71;95841.00;5046138;28;20052;-78
2022/02/02 06:05:58;;;;;;;9.40;2.13;;;;;;;3.93;84.53;95856.59;5046622;28;20060;-80
2022/02/02 06:08:25;;;;;;;16.08;2.80;;;;;;;3.91;84.82;95858.78;5046470;28;20048;-76
2022/02/02 06:10:52;;;;;;;13.25;2.50;;;;;;;3.85;85.04;95875.28;5045742;28;20401;-76
2022/02/02 06:13:21;;;;;;;15.98;2.17;;;;;;;3.73;86.21;95878.38;5046074;28;20528;-76
2022/02/02 06:15:50;;;;;;;12.32;2.20;;;;;;;3.61;87.42;95886.06;5045727;28;20059;-77
2022/02/02 06:18:20;;;;;;;18.65;2.72;;;;;;;3.49;87.96;95886.41;5045600;28;20041;-76
2022/02/02 06:20:55;;;;;;;19.60;2.72;;;;;;;3.39;88.68;95884.66;5047249;28;20815;-76
2022/02/02 06:23:30;;;;;;;10.90;2.20;;;;;;;3.32;88.56;95894.91;5046150;28;20064;-76
2022/02/02 06:26:00;;;;;;;12.05;2.22;;;;;;;3.27;88.42;95886.88;5046709;28;20052;-76
2022/02/02 06:28:32;;;;;;;7.82;2.10;;;;;;;3.20;87.25;95897.19;5046432;28;20150;-75
2022/02/02 06:31:01;;;;;;;7.63;1.63;;;;;;;3.13;86.33;95891.31;5047113;28;20056;-75
2022/02/02 06:33:33;;;;;;;9.90;1.80;;;;;;;3.07;86.18;95895.13;5046330;28;20502;-76
2022/02/02 06:36:00;;;;;;;5.85;1.60;;;;;;;3.08;85.50;95899.41;5046474;28;20041;-76
2022/02/02 06:38:29;;;;;;;4.00;1.23;;;;;;;3.12;84.80;95903.97;5046800;28;20563;-75
2022/02/02 06:40:57;;;;;;;3.97;1.00;;;;;;;3.18;84.31;95920.06;5045517;28;20587;-76
2022/02/02 06:43:24;;;;;;;3.67;0.90;;;;;;;3.25;83.71;95904.41;5046152;28;20048;-75
2022/02/02 06:45:53;;;;;;;3.58;0.95;;;;;;;3.24;83.82;95909.00;5046013;28;20518;-75
2022/02/02 06:48:20;;;;;;;5.97;1.05;;;;;;;3.24;84.45;95898.22;5046472;28;20488;-76
2022/02/02 06:50:56;;;;;;;3.75;0.93;;;;;;;3.25;84.80;95904.41;5046805;28;20052;-75
2022/02/02 06:53:28;;;;;;;4.32;1.00;;;;;;;3.23;85.32;95912.75;5046490;28;20049;-76
2022/02/02 06:56:11;;;;;;;5.77;1.00;;;;;;;3.23;85.83;95922.72;5046414;28;20111;-76
2022/02/02 06:58:46;;;;;;;7.68;1.58;;;;;;;3.19;86.11;95932.47;5046488;28;20069;-75
2022/02/02 07:01:33;;;;;;;10.43;1.23;;;;;;;3.25;86.23;95950.97;5046213;28;20080;-76
2022/02/02 07:04:10;;;;;;;5.65;1.83;;;;;;;3.29;86.00;95949.31;5046523;28;20061;-76
2022/02/02 07:06:46;;;;;;;8.02;1.83;;;;;;;3.38;85.57;95934.16;5046825;28;20488;-76
2022/02/02 07:09:28;;;;;;;7.10;1.52;;;;;;;3.42;85.22;95925.53;5047380;28;20446;-77
2022/02/02 07:12:08;;;;;;;9.07;1.90;;;;;;;3.50;85.25;95916.81;5048821;28;20057;-76
2022/02/02 07:14:53;;;;;;;6.35;1.38;;;;;;;3.53;84.65;95930.53;5050049;28;20115;-77
2022/02/02 07:17:36;;;;;;;8.20;1.73;;;;;;;3.56;83.96;95916.50;5049529;28;20088;-76
2022/02/02 07:20:11;;;;;;;7.25;1.67;;;;;;;3.59;83.99;95915.13;5049792;28;20127;-76
2022/02/02 07:23:01;;;;;;;10.02;1.83;;;;;;;3.63;83.61;95922.34;5050041;28;20123;-76
2022/02/02 07:25:43;;;;;;;8.13;1.73;;;;;;;3.63;83.37;95926.94;5049490;28;20072;-76
2022/02/02 07:28:13;;;;;;;12.90;2.50;;;;;;;3.64;83.67;95923.16;5049363;28;20153;-76
2022/02/02 07:30:56;;;;;;;8.13;1.80;;;;;;;3.65;83.53;95940.91;5050048;28;20049;-76
2022/02/02 07:33:31;;;;;;;8.70;1.63;;;;;;;3.66;82.86;95931.78;5049287;28;20049;-76
2022/02/02 07:36:07;;;;;;;9.40;1.92;;;;;;;3.70;83.51;95946.25;5049725;28;20159;-76
2022/02/02 07:38:43;;;;;;;16.02;1.92;;;;;;;3.68;82.99;95951.13;5049619;28;20037;-76
2022/02/02 07:41:15;;;;;;;17.63;2.78;;;;;;;3.67;83.32;95944.94;5047816;28;20134;-76
2022/02/02 07:43:45;;;;;;;12.32;2.17;;;;;;;3.70;82.60;95943.56;5049848;28;20417;-76
2022/02/02 07:46:14;;;;;;;12.43;2.03;;;;;;;3.70;82.51;95946.25;5049231;28;20049;-76
2022/02/02 07:48:44;;;;;;;13.32;2.22;;;;;;;3.66;82.75;95937.97;5049662;28;20060;-76
2022/02/02 07:51:11;;;;;;;11.20;2.30;;;;;;;3.70;82.83;95942.75;5049183;28;20887;-76
2022/02/02 07:53:42;;;;;;;10.73;1.77;;;;;;;3.73;82.48;95956.47;5049623;28;20140;-76
2022/02/02 07:56:14;;;;;;;16.00;2.70;;;;;;;3.75;82.69;95962.38;5048616;28;20048;-76
2022/02/02 07:58:43;;;;;;;11.85;2.00;;;;;;;3.79;82.96;95963.41;5049640;28;20049;-76
2022/02/02 08:01:12;;;;;;;12.27;2.75;;;;;;;3.84;82.64;95968.75;5048781;28;20156;-76
2022/02/02 08:03:41;;;;;;;10.85;2.60;;;;;;;3.84;82.40;95976.81;5049417;28;20094;-76
2022/02/02 08:06:11;;;;;;;12.32;2.50;;;;;;;3.87;82.37;95973.56;5048916;28;20126;-76
2022/02/02 08:08:40;;;;;;;12.02;2.25;;;;;;;3.97;81.14;95986.16;5049491;28;20087;-76
2022/02/02 08:11:09;;;;;;;9.45;2.17;;;;;;;4.00;81.64;95995.53;5048873;28;20059;-77
2022/02/02 08:13:42;;;;;;;17.13;2.05;;;;;;;4.11;81.56;96002.44;5049049;28;20790;-76
2022/02/02 08:16:12;;;;;;;9.57;2.50;;;;;;;4.17;80.96;96003.97;5048774;28;20503;-76
2022/02/02 08:18:41;;;;;;;14.77;2.42;;;;;;;4.22;80.25;96012.00;5048969;28;20291;-76
2022/02/02 08:21:09;;;;;;;11.07;2.30;;;;;;;4.23;79.94;96021.72;5048629;28;20053;-76
2022/02/02 08:23:36;;;;;;;11.85;2.60;;;;;;;4.27;80.47;96024.63;5048961;28;20044;-76
2022/02/02 08:26:05;;;;;;;11.43;1.88;;;;;;;4.31;80.51;96039.94;5048592;28;20129;-77
2022/02/02 08:28:32;;;;;;;12.95;3.40;;;;;;;4.35;80.88;96029.41;5049062;28;20049;-76
2022/02/02 08:30:58;;;;;;;12.93;2.22;;;;;;;4.35;80.96;96027.50;5048961;28;20052;-76
2022/02/02 08:33:28;;;;;;;15.45;2.17;;;;;;;4.33;80.92;96037.78;5048395;28;20045;-76
2022/02/02 08:35:57;;;;;;;9.20;1.83;;;;;;;4.36;80.60;96042.59;5048756;28;20098;-76
2022/02/02 08:38:40;;;;;;;10.25;2.28;;;;;;;4.38;81.08;96050.38;5048207;28;20126;-76
2022/02/02 08:41:11;;;;;;;13.43;2.38;;;;;;;4.40;80.80;96054.41;5046352;28;20052;-76
2022/02/02 08:43:42;;;;;;;15.77;3.22;;;;;;;4.44;80.41;96055.47;5048597;28;20139;-76
2022/02/02 08:46:12;;;;;;;13.02;2.60;;;;;;;4.49;80.46;96061.88;5047778;28;20144;-76
2022/02/02 08:48:42;;;;;;;23.73;3.38;;;;;;;4.44;81.27;96068.13;5048481;28;20044;-76
2022/02/02 08:51:12;;;;;;;12.88;2.55;;;;;;;4.51;80.61;96065.09;5048317;28;20044;-77
2022/02/02 08:53:51;;;;;;;16.33;2.47;;;;;;;4.59;80.83;96061.75;5048440;28;20049;-77
2022/02/02 08:56:50;;;;;;;14.57;2.58;;;;;;;4.60;80.08;96063.38;5048044;28;20404;-76
2022/02/02 08:59:22;;;;;;;12.05;2.90;;;;;;;4.59;81.15;96057.16;5047713;28;20071;-77
2022/02/02 09:01:50;;;;;;;17.98;3.50;;;;;;;4.46;82.11;96063.25;5048237;28;20072;-76
2022/02/02 09:07:01;;;;;;;13.48;2.95;;;;;;;4.35;82.89;96070.66;5048592;28;20051;-77
2022/02/02 09:09:47;;;;;;;11.60;2.90;;;;;;;4.36;82.45;96074.13;5047664;28;20049;-77
2022/02/02 09:20:59;;;;;;;11.52;2.83;;;;;;;4.39;82.99;96074.38;5047602;28;20309;-76
2022/02/02 09:23:28;;;;;;;21.17;2.95;;;;;;;4.44;83.07;96087.81;5047275;28;20049;-76
2022/02/02 09:26:13;;;;;;;14.95;3.10;;;;;;;4.51;81.55;96083.97;5048123;28;20067;-77
2022/02/02 09:31:35;;;;;;;16.83;3.25;;;;;;;4.61;80.76;96089.25;5047205;28;20423;-76
2022/02/02 09:34:04;;;;;;;20.25;4.00;;;;;;;4.64;81.70;96094.06;5047280;28;20049;-77
2022/02/02 09:36:33;;;;;;;15.10;3.33;;;;;;;4.70;81.32;96101.84;5047852;28;20516;-77
2022/02/02 09:39:07;;;;;;;18.40;3.40;;;;;;;4.83;79.97;96104.94;5047660;28;20059;-76
2022/02/02 09:41:39;;;;;;;18.85;3.15;;;;;;;4.93;79.85;96097.50;5046629;28;20064;-77
2022/02/02 09:44:08;;;;;;;13.05;3.00;;;;;;;5.00;79.13;96102.56;5047141;28;20068;-77
2022/02/02 09:46:45;;;;;;;17.42;3.10;;;;;;;5.08;79.25;96115.44;5047784;28;20051;-77
2022/02/02 09:49:17;;;;;;;13.75;2.95;;;;;;;5.14;79.08;96121.56;5047109;28;20132;-76
2022/02/02 09:51:48;;;;;;;16.00;3.75;;;;;;;5.15;78.43;96118.56;5047508;28;20082;-76
2022/02/02 09:54:20;;;;;;;19.88;3.72;;;;;;;5.22;78.12;96116.34;5046856;28;20044;-76
2022/02/02 09:59:54;;;;;;;20.75;3.83;;;;;;;5.29;76.53;96128.66;5046107;28;20056;-76
2022/02/02 10:05:15;;;;;;;17.77;3.70;;;;;;;5.31;77.30;96124.56;5020366;28;20126;-77
2022/02/02 10:16:15;;;;;;;21.48;3.30;;;;;;;5.09;77.63;96110.81;5042843;28;20567;-76
2022/02/02 10:18:42;;;;;;;18.20;2.95;;;;;;;5.09;78.08;96116.22;5047275;28;20048;-77
2022/02/02 10:21:08;;;;;;;16.45;2.90;;;;;;;5.11;78.13;96108.63;5046791;28;20139;-77
2022/02/02 10:23:36;;;;;;;18.50;3.00;;;;;;;5.12;78.71;96110.25;5047211;28;20044;-76
2022/02/02 10:26:18;;;;;;;16.08;3.90;;;;;;;5.11;78.44;96122.13;5046190;28;20056;-77
2022/02/02 10:28:48;;;;;;;15.75;3.38;;;;;;;5.10;79.09;96155.63;5047420;28;20052;-76
2022/02/02 10:31:14;;;;;;;22.67;4.00;;;;;;;5.10;79.58;96172.59;5046649;28;20049;-77
2022/02/02 10:33:42;;;;;;;13.77;3.05;;;;;;;4.92;78.79;96160.66;5047223;28;20053;-76
2022/02/02 10:36:13;;;;;;;14.65;2.65;;;;;;;4.42;79.29;96156.56;5046659;28;20063;-77
2022/02/02 10:38:48;;;;;;;20.88;2.80;;;;;;;4.00;80.75;96165.28;5047215;28;20052;-77
2022/02/02 10:41:23;;;;;;;14.38;2.92;;;;;;;3.81;83.05;96165.94;5045004;28;20142;-74
2022/02/02 10:43:55;;;;;;;17.20;3.28;;;;;;;3.71;84.95;96166.00;5047824;28;20052;-79
2022/02/02 10:46:28;;;;;;;19.60;3.45;;;;;;;3.74;86.39;96165.44;5050146;28;20110;-75
2022/02/02 10:49:00;;;;;;;17.60;4.18;;;;;;;3.80;87.65;96169.69;5050834;28;20053;-77
2022/02/02 10:51:37;;;;;;;15.52;2.80;;;;;;;3.87;87.10;96159.44;5050774;28;20045;-76
2022/02/02 10:54:25;;;;;;;10.27;2.80;;;;;;;3.87;87.63;96159.44;5050071;28;20053;-76
2022/02/02 10:57:05;;;;;;;13.13;2.30;;;;;;;3.90;88.54;96166.13;5050683;28;20051;-75
2022/02/02 10:59:58;;;;;;;8.60;1.92;;;;;;;3.87;88.28;96170.22;5050785;28;20040;-77
2022/02/02 11:07:55;;;;;;;8.10;2.25;;;;;;;3.90;88.27;96164.25;5050484;28;20453;-76
2022/02/02 11:10:23;;;;;;;7.20;2.10;;;;;;;3.99;87.45;96174.44;5048430;28;20138;-77
2022/02/02 11:12:53;;;;;;;8.43;2.05;;;;;;;4.07;87.28;96177.34;5050467;28;20499;-76
2022/02/02 11:15:29;;;;;;;7.25;1.70;;;;;;;4.10;86.10;96178.66;5049671;28;20044;-77
2022/02/02 11:18:04;;;;;;;12.15;2.55;;;;;;;4.17;85.88;96173.75;5050683;28;20049;-77
2022/02/02 11:20:30;;;;;;;8.75;1.88;;;;;;;4.22;85.52;96165.63;5050009;28;20044;-77
2022/02/02 11:22:58;;;;;;;8.95;2.15;;;;;;;4.22;85.67;96165.63;5050175;28;20051;-77
2022/02/02 11:25:42;;;;;;;13.05;3.28;;;;;;;4.24;85.53;96168.88;5049290;28;20103;-77
2022/02/02 11:28:34;;;;;;;11.68;2.50;;;;;;;4.35;85.92;96175.78;5049652;28;20044;-77
2022/02/02 11:31:16;;;;;;;10.90;2.60;;;;;;;4.30;85.46;96167.72;5026048;28;20049;-77
2022/02/02 11:33:50;;;;;;;13.98;2.97;;;;;;;4.35;85.52;96167.69;5049729;28;20045;-77
2022/02/02 11:36:25;;;;;;;12.52;2.38;;;;;;;4.41;85.76;96169.25;5049127;28;20452;-77
2022/02/02 11:38:54;;;;;;;13.05;2.90;;;;;;;4.45;85.37;96164.09;5050383;28;20134;-78
2022/02/02 11:41:53;;;;;;;16.52;3.38;;;;;;;4.50;84.54;96168.66;5048498;28;20114;-77
2022/02/02 11:44:39;;;;;;;12.82;3.03;;;;;;;4.57;84.09;96166.41;5049013;28;20067;-77
2022/02/02 11:47:12;;;;;;;17.23;2.90;;;;;;;4.64;83.40;96178.47;5049143;28;20053;-75
2022/02/02 11:49:53;;;;;;;22.52;3.25;;;;;;;4.76;81.56;96153.84;5049890;28;20055;-77
2022/02/02 11:52:49;;;;;;;17.17;3.58;;;;;;;4.94;81.36;96161.19;5049167;28;20057;-75
2022/02/02 11:55:43;;;;;;;14.43;3.05;;;;;;;5.06;80.50;96159.97;5013452;28;20053;-75
2022/02/02 11:58:15;;;;;;;20.88;3.67;;;;;;;5.10;79.70;96159.13;5049186;28;20059;-75
2022/02/02 12:00:53;;;;;;;15.93;3.20;;;;;;;5.20;79.90;96169.00;5049711;28;20055;-75
2022/02/02 12:06:37;;;;;;;14.70;2.92;;;;;;;5.31;80.15;96172.38;5067861;27;20387;-76
2022/02/02 12:09:11;;;;;;;11.43;2.25;;;;;;;5.39;78.09;96174.44;5064531;28;20057;-76
2022/02/02 12:48:48;;;;;;;4.00;1.33;;;;;;;4.80;85.80;96203.41;5014881;28;20472;-75
2022/02/02 12:56:58;;;;;;;7.22;1.50;;;;;;;4.87;79.46;96228.19;5003120;28;20057;-75
2022/02/02 12:59:42;;;;;;;5.35;1.70;;;;;;;4.82;80.64;96233.63;5023911;28;20052;-76
2022/02/02 13:02:11;;;;;;;7.93;1.75;;;;;;;4.88;79.90;96240.56;5023654;28;20419;-76
2022/02/02 13:04:39;;;;;;;6.88;1.50;;;;;;;4.93;80.15;96245.13;5023824;28;20057;-76
2022/02/02 13:07:14;;;;;;;6.97;2.10;;;;;;;5.00;80.72;96244.78;5023861;28;20084;-76
2022/02/02 13:09:42;;;;;;;9.93;1.73;;;;;;;5.01;80.24;96251.78;5024521;28;20054;-76
2022/02/02 13:12:25;;;;;;;7.90;2.05;;;;;;;5.06;80.08;96254.44;5041147;28;20056;-76
2022/02/02 13:18:03;;;;;;;8.57;1.77;;;;;;;5.03;80.30;96249.63;5030133;28;20079;-76
2022/02/02 13:20:38;;;;;;;7.10;1.52;;;;;;;5.05;79.52;96260.94;5030241;28;20092;-76
2022/02/02 13:23:11;;;;;;;8.25;2.00;;;;;;;5.07;80.04;96273.06;5030067;28;20057;-76
2022/02/02 13:25:40;;;;;;;;;;;;;;;5.08;80.13;96281.97;5030785;28;20512;-76
2022/02/02 13:28:09;;;;;;;6.90;1.77;;;;;;;5.04;80.35;96283.59;5030003;28;19925;-76
2022/02/02 13:30:42;;;;;;;11.55;2.38;;;;;;;4.98;81.29;96285.56;5030428;28;20045;-76
2022/02/02 13:33:17;;;;;;;7.68;1.80;;;;;;;5.03;81.03;96282.81;5030142;28;20057;-77
2022/02/02 13:35:55;;;;;;;9.88;2.10;;;;;;;5.01;81.08;96289.56;5030284;28;20053;-76
2022/02/02 13:38:45;;;;;;;9.23;2.33;;;;;;;4.93;82.68;96299.88;5029804;28;20053;-74
2022/02/02 13:44:23;;;;;;;9.95;2.72;;;;;;;4.73;84.58;96289.25;5030220;28;20061;-75
2022/02/02 13:47:10;;;;;;;;;;;;;;;4.60;84.70;96290.72;5030728;28;20042;-75
2022/02/02 13:52:46;;;;;;;12.57;2.70;;;;;;;4.62;86.53;96306.63;5029360;28;20053;-75
2022/02/02 13:55:35;;;;;;;11.27;2.90;;;;;;;4.63;85.98;96311.72;5029189;28;20053;-75
2022/02/02 13:58:28;;;;;;;6.97;2.25;;;;;;;4.72;85.70;96326.22;5029522;28;20067;-75
2022/02/02 14:01:03;;;;;;;11.82;2.80;;;;;;;4.80;85.20;96327.50;5030051;28;20136;-75
2022/02/02 14:03:56;;;;;;;9.63;2.47;;;;;;;4.90;84.58;96323.91;5029360;28;20100;-75
2022/02/02 14:06:36;;;;;;;9.18;2.70;;;;;;;4.94;83.83;96331.19;5029481;28;20069;-74
2022/02/02 14:09:11;;;;;;;12.95;2.95;;;;;;;4.95;83.71;96340.06;5029509;28;20059;-75
2022/02/02 14:33:29;;;;;;;12.98;2.92;;;;;;;4.55;87.08;96371.66;5028845;28;20152;-75
2022/02/02 14:35:58;;;;;;;11.95;2.85;;;;;;;4.41;86.99;96384.94;5029350;28;20147;-75
2022/02/02 14:38:26;;;;;;;11.90;2.97;;;;;;;4.27;87.59;96400.09;5028783;28;20412;-75
2022/02/02 14:41:02;;;;;;;15.35;3.35;;;;;;;4.18;88.79;96417.94;5028513;28;20049;-75
2022/02/02 14:43:34;;;;;;;9.30;2.63;;;;;;;4.02;88.71;96413.66;5028553;28;20053;-74
2022/02/02 14:46:02;;;;;;;8.77;3.00;;;;;;;3.78;89.29;96446.59;5028545;28;20504;-74
2022/02/02 14:48:34;;;;;;;6.82;1.73;;;;;;;3.50;88.99;96433.69;5028849;28;20048;-74
2022/02/02 14:51:07;;;;;;;5.63;1.75;;;;;;;3.33;88.47;96433.97;5029022;28;20123;-74
2022/02/02 14:53:41;;;;;;;;;;;;;;;3.19;89.28;96433.72;5029215;28;20088;-74
2022/02/02 14:56:32;;;;;;;3.90;1.48;;;;;;;3.08;89.53;96422.16;5028315;28;19925;-74
2022/02/02 15:24:02;;;;;;;5.25;1.13;;;;;;;3.00;87.41;96497.19;5028365;28;20075;-74
2022/02/02 15:29:13;;;;;;;4.35;1.60;;;;;;;3.16;86.42;96508.78;5026316;28;20048;-74
2022/02/02 15:31:41;;;;;;;4.93;1.17;;;;;;;3.26;86.89;96503.44;5028006;28;20060;-74
2022/02/02 15:34:12;;;;;;;5.25;1.40;;;;;;;3.36;86.32;96509.63;5027489;28;20046;-75
2022/02/02 15:37:11;;;;;;;3.28;1.20;;;;;;;3.46;85.63;96503.44;5027953;28;20048;-74
2022/02/02 15:39:38;;;;;;;5.40;1.20;;;;;;;3.53;84.52;96511.25;5027354;28;20053;-74
2022/02/02 15:42:21;;;;;;;5.47;1.38;;;;;;;3.57;83.80;96504.25;5027256;28;20080;-74
2022/02/02 15:54:40;;;;;;;5.38;1.92;;;;;;;3.57;83.75;96504.25;5027767;28;20092;-74
2022/02/02 15:56:46;;;;;;;8.38;1.92;;;;;;;3.57;83.00;96504.25;5067567;28;20055;-75
2022/02/02 15:58:56;;;;;;;8.13;2.08;;;;;;;3.57;83.12;96525.78;5067210;28;20123;-76
2022/02/02 16:04:23;;;;;;;11.32;2.55;;;;;;;3.60;83.49;96542.22;5066677;28;20111;-74
2022/02/02 16:06:51;;;;;;;6.15;2.63;;;;;;;3.62;83.69;96539.25;5067206;28;20568;-74
2022/02/02 16:09:24;;;;;;;9.82;2.10;;;;;;;3.66;84.07;96543.03;5067060;28;20559;-76
2022/02/02 16:12:05;;;;;;;;;;;;;;;3.66;83.75;96535.75;5067597;28;20048;-75
2022/02/02 16:14:38;;;;;;;8.43;2.40;;;;;;;3.66;84.38;96537.66;5067468;28;20279;-74
2022/02/02 16:17:16;;;;;;;11.10;2.65;;;;;;;3.70;84.12;96546.78;5067235;28;20060;-75
2022/02/02 16:24:43;;;;;;;5.90;2.17;;;;;;;3.70;83.83;96541.41;5067438;28;20721;-74
2022/02/02 16:25:34;;;;;;;8.65;2.63;;;;;;;3.78;84.24;96540.88;5066771;28;20098;-74
2022/02/02 16:36:17;;;;;;;7.82;2.45;;;;;;;3.83;84.40;96540.88;5066309;28;20044;-76
2022/02/02 16:38:56;;;;;;;8.40;3.13;;;;;;;3.86;84.99;96540.34;5067087;28;20419;-77
2022/02/02 16:44:09;;;;;;;10.90;3.22;;;;;;;3.89;85.30;96545.19;5066762;28;20070;-77
2022/02/02 16:46:35;;;;;;;7.93;2.75;;;;;;;3.85;86.18;96560.25;5067164;28;20074;-74
2022/02/02 16:49:02;;;;;;;6.53;2.58;;;;;;;3.89;85.85;96561.34;5066982;28;20053;-76
2022/02/02 16:51:28;;;;;;;8.70;2.95;;;;;;;3.90;85.90;96571.03;5068225;28;20060;-75
2022/02/02 16:53:58;;;;;;;12.23;2.60;;;;;;;3.85;86.57;96587.19;5070846;28;20561;-74
2022/02/02 16:56:35;;;;;;;12.98;3.38;;;;;;;3.85;87.40;96595.28;5070408;28;20127;-74
2022/02/02 17:32:01;;;;;;;6.50;1.67;;;;;;;2.75;87.25;96590.16;5070022;28;20086;-75
2022/02/02 17:34:34;;;;;;;7.15;1.90;;;;;;;2.78;86.71;96605.78;5069656;28;20048;-76
2022/02/02 17:37:10;;;;;;;8.05;1.88;;;;;;;2.81;86.34;96613.31;5069904;28;20478;-76
2022/02/02 17:39:45;;;;;;;5.60;1.67;;;;;;;2.86;86.52;96602.59;5069868;28;20041;-75
2022/02/02 17:42:33;;;;;;;6.10;1.77;;;;;;;2.98;86.04;96620.41;5068592;28;20380;-76
2022/02/02 17:45:24;;;;;;;4.28;1.50;;;;;;;3.05;85.70;96626.34;5069615;28;20071;-75
2022/02/02 17:56:29;;;;;;;8.00;2.28;;;;;;;3.31;86.16;96644.19;5068997;28;20527;-74
2022/02/02 18:12:50;;;;;;;4.72;2.13;;;;;;;3.40;86.98;96692.97;5068608;28;20052;-74
2022/02/02 18:20:48;;;;;;;9.10;2.42;;;;;;;3.27;86.69;96710.38;5068058;28;20051;-74
2022/02/02 18:23:23;;;;;;;6.53;2.20;;;;;;;3.23;87.23;96709.28;5068801;28;20450;-74